Zephyr Point, Nevada
Current Conditions -  °F | °C
As of 8:53 AM on Monday 22 Dec 2014 (Local Time) from KTVL Reporting Station
Clear Clear  
Wind Chill: 38°   Ceiling: Unl
Heat Index: 38°   Visibility: 10mi
Dew Point: 30°   Wind: 3mph
Humidity: 73%   Direction: 190°S
Pressure: 30.34"   Gusts: NA
Location:  39.0164°N, 119.925°W
Report Text: KTVL 221653Z AUTO 19003KT 10SM CLR 03/M01 A3034 RMK AO2 SLP267 T00331011
Loading
Personal Weather Stations






























Interactive Weather Map New forecast layout! Learn more

10-Day Weather Forecast

Advertisements
Track Severe Weather on mobile